sensor_id;sensor_type;location;lat;lon;timestamp;temperature;humidity
24146;DHT22;12308;50.948;4.706;2023-05-19T00:00:17;10.40;99.90
24146;DHT22;12308;50.948;4.706;2023-05-19T00:02:44;10.30;99.90
24146;DHT22;12308;50.948;4.706;2023-05-19T00:05:11;10.30;99.90
24146;DHT22;12308;50.948;4.706;2023-05-19T00:07:40;10.20;99.90
24146;DHT22;12308;50.948;4.706;2023-05-19T00:10:08;10.20;99.90
24146;DHT22;12308;50.948;4.706;2023-05-19T00:12:35;10.20;99.90
24146;DHT22;12308;50.948;4.706;2023-05-19T00:15:02;10.20;99.90
24146;DHT22;12308;50.948;4.706;2023-05-19T00:17:28;10.00;99.90
24146;DHT22;12308;50.948;4.706;2023-05-19T00:19:54;10.00;99.90
24146;DHT22;12308;50.948;4.706;2023-05-19T00:22:20;10.00;99.90
24146;DHT22;12308;50.948;4.706;2023-05-19T00:24:45;10.00;99.90
24146;DHT22;12308;50.948;4.706;2023-05-19T00:27:11;9.90;99.90
24146;DHT22;12308;50.948;4.706;2023-05-19T00:29:37;9.90;99.90
24146;DHT22;12308;50.948;4.706;2023-05-19T00:32:02;9.80;99.90
24146;DHT22;12308;50.948;4.706;2023-05-19T00:34:28;9.80;99.90
24146;DHT22;12308;50.948;4.706;2023-05-19T00:36:54;9.80;99.90
24146;DHT22;12308;50.948;4.706;2023-05-19T00:39:20;9.80;99.90
24146;DHT22;12308;50.948;4.706;2023-05-19T00:41:45;9.60;99.90
24146;DHT22;12308;50.948;4.706;2023-05-19T00:44:11;9.70;99.90
24146;DHT22;12308;50.948;4.706;2023-05-19T00:46:37;9.60;99.90
24146;DHT22;12308;50.948;4.706;2023-05-19T00:49:02;9.50;99.90
24146;DHT22;12308;50.948;4.706;2023-05-19T00:51:28;9.40;99.90
24146;DHT22;12308;50.948;4.706;2023-05-19T00:53:55;9.50;99.90
24146;DHT22;12308;50.948;4.706;2023-05-19T00:56:21;9.60;99.90
24146;DHT22;12308;50.948;4.706;2023-05-19T00:58:50;9.60;99.90
24146;DHT22;12308;50.948;4.706;2023-05-19T01:01:16;9.60;99.90
24146;DHT22;12308;50.948;4.706;2023-05-19T01:03:43;9.40;99.90
24146;DHT22;12308;50.948;4.706;2023-05-19T01:06:09;9.50;99.90
24146;DHT22;12308;50.948;4.706;2023-05-19T01:08:37;9.50;99.90
24146;DHT22;12308;50.948;4.706;2023-05-19T01:11:04;9.50;99.90
24146;DHT22;12308;50.948;4.706;2023-05-19T01:13:31;9.50;99.90
24146;DHT22;12308;50.948;4.706;2023-05-19T01:17:18;9.50;99.90
24146;DHT22;12308;50.948;4.706;2023-05-19T01:22:17;9.30;99.90
24146;DHT22;12308;50.948;4.706;2023-05-19T01:30:36;9.10;99.90
24146;DHT22;12308;50.948;4.706;2023-05-19T01:33:06;9.30;99.90
24146;DHT22;12308;50.948;4.706;2023-05-19T01:35:34;9.20;99.90
24146;DHT22;12308;50.948;4.706;2023-05-19T01:38:02;9.30;99.90
24146;DHT22;12308;50.948;4.706;2023-05-19T01:40:29;9.30;99.90
24146;DHT22;12308;50.948;4.706;2023-05-19T01:42:57;9.20;99.90
24146;DHT22;12308;50.948;4.706;2023-05-19T01:45:23;9.20;99.90
24146;DHT22;12308;50.948;4.706;2023-05-19T01:47:53;9.10;99.90
24146;DHT22;12308;50.948;4.706;2023-05-19T01:50:20;9.10;99.90
24146;DHT22;12308;50.948;4.706;2023-05-19T01:52:46;9.00;99.90
24146;DHT22;12308;50.948;4.706;2023-05-19T01:55:12;8.90;99.90
24146;DHT22;12308;50.948;4.706;2023-05-19T02:03:34;9.00;99.90
24146;DHT22;12308;50.948;4.706;2023-05-19T02:09:17;8.90;99.90
24146;DHT22;12308;50.948;4.706;2023-05-19T02:15:04;8.80;99.90
24146;DHT22;12308;50.948;4.706;2023-05-19T02:17:35;8.90;99.90
24146;DHT22;12308;50.948;4.706;2023-05-19T02:20:03;8.70;99.90
24146;DHT22;12308;50.948;4.706;2023-05-19T02:22:30;8.70;99.90
24146;DHT22;12308;50.948;4.706;2023-05-19T02:24:56;8.70;99.90
24146;DHT22;12308;50.948;4.706;2023-05-19T02:27:22;8.80;99.90
24146;DHT22;12308;50.948;4.706;2023-05-19T02:29:48;8.80;99.90
24146;DHT22;12308;50.948;4.706;2023-05-19T02:32:14;8.80;99.90
24146;DHT22;12308;50.948;4.706;2023-05-19T02:34:40;8.80;99.90
24146;DHT22;12308;50.948;4.706;2023-05-19T02:37:15;8.60;99.90
24146;DHT22;12308;50.948;4.706;2023-05-19T02:39:42;8.50;99.90
24146;DHT22;12308;50.948;4.706;2023-05-19T02:42:08;8.60;99.90
24146;DHT22;12308;50.948;4.706;2023-05-19T02:44:35;8.50;99.90
24146;DHT22;12308;50.948;4.706;2023-05-19T02:47:01;8.40;99.90
24146;DHT22;12308;50.948;4.706;2023-05-19T02:49:27;8.40;99.90
24146;DHT22;12308;50.948;4.706;2023-05-19T02:51:55;8.40;99.90
24146;DHT22;12308;50.948;4.706;2023-05-19T02:54:21;8.40;99.90
24146;DHT22;12308;50.948;4.706;2023-05-19T02:56:47;8.40;99.90
24146;DHT22;12308;50.948;4.706;2023-05-19T02:59:13;8.40;99.90
24146;DHT22;12308;50.948;4.706;2023-05-19T03:01:38;8.30;99.90
24146;DHT22;12308;50.948;4.706;2023-05-19T03:04:04;8.30;99.90
24146;DHT22;12308;50.948;4.706;2023-05-19T03:06:30;8.30;99.90
24146;DHT22;12308;50.948;4.706;2023-05-19T03:08:57;8.20;99.90
24146;DHT22;12308;50.948;4.706;2023-05-19T03:11:23;8.20;99.90
24146;DHT22;12308;50.948;4.706;2023-05-19T03:13:49;8.10;99.90
24146;DHT22;12308;50.948;4.706;2023-05-19T03:16:14;8.10;99.90
24146;DHT22;12308;50.948;4.706;2023-05-19T03:18:41;7.90;99.90
24146;DHT22;12308;50.948;4.706;2023-05-19T03:21:07;7.90;99.90
24146;DHT22;12308;50.948;4.706;2023-05-19T03:23:33;8.00;99.90
24146;DHT22;12308;50.948;4.706;2023-05-19T03:25:58;8.10;99.90
24146;DHT22;12308;50.948;4.706;2023-05-19T03:28:25;8.10;99.90
24146;DHT22;12308;50.948;4.706;2023-05-19T03:30:52;7.90;99.90
24146;DHT22;12308;50.948;4.706;2023-05-19T03:33:17;7.90;99.90
24146;DHT22;12308;50.948;4.706;2023-05-19T03:35:43;7.80;99.90
24146;DHT22;12308;50.948;4.706;2023-05-19T03:38:09;7.80;99.90
24146;DHT22;12308;50.948;4.706;2023-05-19T03:40:35;7.70;99.90
24146;DHT22;12308;50.948;4.706;2023-05-19T03:43:01;7.80;99.90
24146;DHT22;12308;50.948;4.706;2023-05-19T03:45:27;7.80;99.90
24146;DHT22;12308;50.948;4.706;2023-05-19T03:47:52;7.80;99.90
24146;DHT22;12308;50.948;4.706;2023-05-19T03:50:18;8.00;99.90
24146;DHT22;12308;50.948;4.706;2023-05-19T03:52:44;8.10;99.90
24146;DHT22;12308;50.948;4.706;2023-05-19T03:55:11;8.00;99.90
24146;DHT22;12308;50.948;4.706;2023-05-19T03:57:39;8.00;99.90
24146;DHT22;12308;50.948;4.706;2023-05-19T04:00:06;8.00;99.90
24146;DHT22;12308;50.948;4.706;2023-05-19T04:02:32;7.90;99.90
24146;DHT22;12308;50.948;4.706;2023-05-19T04:04:58;7.90;99.90
24146;DHT22;12308;50.948;4.706;2023-05-19T04:07:24;7.90;99.90
24146;DHT22;12308;50.948;4.706;2023-05-19T04:09:50;7.90;99.90
24146;DHT22;12308;50.948;4.706;2023-05-19T04:12:15;7.90;99.90
24146;DHT22;12308;50.948;4.706;2023-05-19T04:14:41;7.90;99.90
24146;DHT22;12308;50.948;4.706;2023-05-19T04:17:07;7.90;99.90
24146;DHT22;12308;50.948;4.706;2023-05-19T04:19:33;7.90;99.90
24146;DHT22;12308;50.948;4.706;2023-05-19T04:21:58;7.90;99.90
24146;DHT22;12308;50.948;4.706;2023-05-19T04:24:24;7.90;99.90
24146;DHT22;12308;50.948;4.706;2023-05-19T04:26:50;8.00;99.90
24146;DHT22;12308;50.948;4.706;2023-05-19T04:29:16;8.00;99.90
24146;DHT22;12308;50.948;4.706;2023-05-19T04:31:43;7.90;99.90
24146;DHT22;12308;50.948;4.706;2023-05-19T04:34:09;8.00;99.90
24146;DHT22;12308;50.948;4.706;2023-05-19T04:36:35;8.10;99.90
24146;DHT22;12308;50.948;4.706;2023-05-19T04:39:02;8.10;99.90
24146;DHT22;12308;50.948;4.706;2023-05-19T04:41:32;8.10;99.90
24146;DHT22;12308;50.948;4.706;2023-05-19T04:43:58;8.20;99.90
24146;DHT22;12308;50.948;4.706;2023-05-19T04:46:25;8.30;99.90
24146;DHT22;12308;50.948;4.706;2023-05-19T04:48:51;8.40;99.90
24146;DHT22;12308;50.948;4.706;2023-05-19T04:51:18;8.30;99.90
24146;DHT22;12308;50.948;4.706;2023-05-19T04:53:44;8.40;99.90
24146;DHT22;12308;50.948;4.706;2023-05-19T04:56:10;8.40;99.90
24146;DHT22;12308;50.948;4.706;2023-05-19T04:58:40;8.60;99.90
24146;DHT22;12308;50.948;4.706;2023-05-19T05:01:06;8.60;99.90
24146;DHT22;12308;50.948;4.706;2023-05-19T05:03:34;8.60;99.90
24146;DHT22;12308;50.948;4.706;2023-05-19T05:06:00;8.80;99.90
24146;DHT22;12308;50.948;4.706;2023-05-19T05:08:25;8.90;99.90
24146;DHT22;12308;50.948;4.706;2023-05-19T05:10:52;8.90;99.90
24146;DHT22;12308;50.948;4.706;2023-05-19T05:13:21;9.00;99.90
24146;DHT22;12308;50.948;4.706;2023-05-19T05:15:47;9.00;99.90
24146;DHT22;12308;50.948;4.706;2023-05-19T05:18:14;9.30;99.90
24146;DHT22;12308;50.948;4.706;2023-05-19T05:20:42;9.40;99.90
24146;DHT22;12308;50.948;4.706;2023-05-19T05:23:11;9.30;99.90
24146;DHT22;12308;50.948;4.706;2023-05-19T05:25:42;9.50;99.90
24146;DHT22;12308;50.948;4.706;2023-05-19T05:28:09;9.60;99.90
24146;DHT22;12308;50.948;4.706;2023-05-19T05:30:35;9.60;99.90
24146;DHT22;12308;50.948;4.706;2023-05-19T05:33:01;9.80;99.90
24146;DHT22;12308;50.948;4.706;2023-05-19T05:35:27;9.90;99.90
24146;DHT22;12308;50.948;4.706;2023-05-19T05:37:53;10.00;99.90
24146;DHT22;12308;50.948;4.706;2023-05-19T05:40:19;10.10;99.90
24146;DHT22;12308;50.948;4.706;2023-05-19T05:42:45;10.10;99.90
24146;DHT22;12308;50.948;4.706;2023-05-19T05:45:10;10.10;99.90
24146;DHT22;12308;50.948;4.706;2023-05-19T05:47:36;10.00;99.90
24146;DHT22;12308;50.948;4.706;2023-05-19T05:50:05;10.00;99.90
24146;DHT22;12308;50.948;4.706;2023-05-19T05:52:31;10.00;99.90
24146;DHT22;12308;50.948;4.706;2023-05-19T05:54:57;10.00;99.90
24146;DHT22;12308;50.948;4.706;2023-05-19T05:57:23;10.00;99.90
24146;DHT22;12308;50.948;4.706;2023-05-19T05:59:49;10.30;99.90
24146;DHT22;12308;50.948;4.706;2023-05-19T06:02:16;10.30;99.90
24146;DHT22;12308;50.948;4.706;2023-05-19T06:04:42;10.60;99.90
24146;DHT22;12308;50.948;4.706;2023-05-19T06:07:08;10.70;99.90
24146;DHT22;12308;50.948;4.706;2023-05-19T06:09:34;10.80;99.90
24146;DHT22;12308;50.948;4.706;2023-05-19T06:12:00;10.90;99.90
24146;DHT22;12308;50.948;4.706;2023-05-19T06:14:26;11.00;99.90
24146;DHT22;12308;50.948;4.706;2023-05-19T06:16:52;11.10;99.90
24146;DHT22;12308;50.948;4.706;2023-05-19T06:19:18;11.00;99.90
24146;DHT22;12308;50.948;4.706;2023-05-19T06:21:46;11.20;99.90
24146;DHT22;12308;50.948;4.706;2023-05-19T06:24:12;11.20;99.90
24146;DHT22;12308;50.948;4.706;2023-05-19T06:26:38;11.20;99.90
24146;DHT22;12308;50.948;4.706;2023-05-19T06:29:03;11.40;99.90
24146;DHT22;12308;50.948;4.706;2023-05-19T06:31:29;11.30;99.90
24146;DHT22;12308;50.948;4.706;2023-05-19T06:33:55;11.30;99.90
24146;DHT22;12308;50.948;4.706;2023-05-19T06:36:21;11.60;99.90
24146;DHT22;12308;50.948;4.706;2023-05-19T06:38:47;11.50;99.90
24146;DHT22;12308;50.948;4.706;2023-05-19T06:41:12;11.70;99.90
24146;DHT22;12308;50.948;4.706;2023-05-19T06:43:38;11.90;99.90
24146;DHT22;12308;50.948;4.706;2023-05-19T06:46:04;12.00;99.90
24146;DHT22;12308;50.948;4.706;2023-05-19T06:48:30;12.10;99.90
24146;DHT22;12308;50.948;4.706;2023-05-19T06:50:55;12.10;99.90
24146;DHT22;12308;50.948;4.706;2023-05-19T06:53:21;12.10;99.90
24146;DHT22;12308;50.948;4.706;2023-05-19T06:55:47;12.30;99.90
24146;DHT22;12308;50.948;4.706;2023-05-19T06:58:15;12.30;99.90
24146;DHT22;12308;50.948;4.706;2023-05-19T07:00:41;12.40;99.90
24146;DHT22;12308;50.948;4.706;2023-05-19T07:03:08;12.40;99.90
24146;DHT22;12308;50.948;4.706;2023-05-19T07:05:33;12.50;99.90
24146;DHT22;12308;50.948;4.706;2023-05-19T07:07:59;12.60;99.90
24146;DHT22;12308;50.948;4.706;2023-05-19T07:10:26;12.70;99.90
24146;DHT22;12308;50.948;4.706;2023-05-19T07:12:52;12.80;99.90
24146;DHT22;12308;50.948;4.706;2023-05-19T07:15:17;12.80;99.90
24146;DHT22;12308;50.948;4.706;2023-05-19T07:17:43;13.00;99.90
24146;DHT22;12308;50.948;4.706;2023-05-19T07:20:09;13.30;99.90
24146;DHT22;12308;50.948;4.706;2023-05-19T07:22:35;13.30;99.90
24146;DHT22;12308;50.948;4.706;2023-05-19T07:25:01;13.30;99.90
24146;DHT22;12308;50.948;4.706;2023-05-19T07:27:27;13.20;99.90
24146;DHT22;12308;50.948;4.706;2023-05-19T07:29:53;13.30;99.90
24146;DHT22;12308;50.948;4.706;2023-05-19T07:32:19;13.20;99.90
24146;DHT22;12308;50.948;4.706;2023-05-19T07:34:44;13.30;99.90
24146;DHT22;12308;50.948;4.706;2023-05-19T07:37:10;13.50;99.90
24146;DHT22;12308;50.948;4.706;2023-05-19T07:39:36;13.50;99.90
24146;DHT22;12308;50.948;4.706;2023-05-19T07:42:02;13.80;99.90
24146;DHT22;12308;50.948;4.706;2023-05-19T07:44:28;14.10;99.90
24146;DHT22;12308;50.948;4.706;2023-05-19T07:46:55;14.20;99.90
24146;DHT22;12308;50.948;4.706;2023-05-19T07:49:21;14.10;99.90
24146;DHT22;12308;50.948;4.706;2023-05-19T07:51:47;14.10;99.90
24146;DHT22;12308;50.948;4.706;2023-05-19T07:54:13;14.10;99.90
24146;DHT22;12308;50.948;4.706;2023-05-19T07:56:39;14.20;99.90
24146;DHT22;12308;50.948;4.706;2023-05-19T07:59:05;14.30;99.90
24146;DHT22;12308;50.948;4.706;2023-05-19T08:01:32;14.20;99.90
24146;DHT22;12308;50.948;4.706;2023-05-19T08:03:58;14.30;99.90
24146;DHT22;12308;50.948;4.706;2023-05-19T08:06:24;14.20;99.90
24146;DHT22;12308;50.948;4.706;2023-05-19T08:08:50;14.40;99.90
24146;DHT22;12308;50.948;4.706;2023-05-19T08:11:16;14.50;99.90
24146;DHT22;12308;50.948;4.706;2023-05-19T08:13:42;14.60;99.90
24146;DHT22;12308;50.948;4.706;2023-05-19T08:16:07;14.70;99.90
24146;DHT22;12308;50.948;4.706;2023-05-19T08:18:33;14.80;99.90
24146;DHT22;12308;50.948;4.706;2023-05-19T08:20:59;14.70;99.90
24146;DHT22;12308;50.948;4.706;2023-05-19T08:23:25;14.80;99.90
24146;DHT22;12308;50.948;4.706;2023-05-19T08:25:51;14.90;99.90
24146;DHT22;12308;50.948;4.706;2023-05-19T08:28:17;14.90;99.90
24146;DHT22;12308;50.948;4.706;2023-05-19T08:30:43;15.30;99.90
24146;DHT22;12308;50.948;4.706;2023-05-19T08:33:08;15.50;99.90
24146;DHT22;12308;50.948;4.706;2023-05-19T08:35:34;15.30;99.90
24146;DHT22;12308;50.948;4.706;2023-05-19T08:38:00;15.40;99.90
24146;DHT22;12308;50.948;4.706;2023-05-19T08:40:27;15.60;99.90
24146;DHT22;12308;50.948;4.706;2023-05-19T08:42:56;15.70;99.90
24146;DHT22;12308;50.948;4.706;2023-05-19T08:45:21;15.80;99.90
24146;DHT22;12308;50.948;4.706;2023-05-19T08:47:48;15.80;99.90
24146;DHT22;12308;50.948;4.706;2023-05-19T08:50:24;15.80;99.90
24146;DHT22;12308;50.948;4.706;2023-05-19T08:53:07;15.90;99.90
24146;DHT22;12308;50.948;4.706;2023-05-19T08:55:41;16.00;99.90
24146;DHT22;12308;50.948;4.706;2023-05-19T08:58:08;16.10;99.90
24146;DHT22;12308;50.948;4.706;2023-05-19T09:00:35;16.20;99.90
24146;DHT22;12308;50.948;4.706;2023-05-19T09:03:01;16.40;99.90
24146;DHT22;12308;50.948;4.706;2023-05-19T09:05:29;16.40;99.90
24146;DHT22;12308;50.948;4.706;2023-05-19T09:07:55;16.40;99.90
24146;DHT22;12308;50.948;4.706;2023-05-19T09:10:21;16.50;99.90
24146;DHT22;12308;50.948;4.706;2023-05-19T09:12:47;16.60;99.90
24146;DHT22;12308;50.948;4.706;2023-05-19T09:15:17;16.50;99.90
24146;DHT22;12308;50.948;4.706;2023-05-19T09:17:45;16.60;99.90
24146;DHT22;12308;50.948;4.706;2023-05-19T09:20:12;16.80;99.90
24146;DHT22;12308;50.948;4.706;2023-05-19T09:22:45;16.90;99.90
24146;DHT22;12308;50.948;4.706;2023-05-19T09:25:24;17.00;99.90
24146;DHT22;12308;50.948;4.706;2023-05-19T09:27:53;17.00;99.90
24146;DHT22;12308;50.948;4.706;2023-05-19T09:30:20;17.00;99.90
24146;DHT22;12308;50.948;4.706;2023-05-19T09:32:45;17.00;99.90
24146;DHT22;12308;50.948;4.706;2023-05-19T09:35:12;17.10;99.90
24146;DHT22;12308;50.948;4.706;2023-05-19T09:37:39;17.20;99.90
24146;DHT22;12308;50.948;4.706;2023-05-19T09:40:07;17.30;99.90
24146;DHT22;12308;50.948;4.706;2023-05-19T09:42:37;17.60;99.90
24146;DHT22;12308;50.948;4.706;2023-05-19T09:45:03;17.80;99.90
24146;DHT22;12308;50.948;4.706;2023-05-19T09:47:36;18.00;99.90
24146;DHT22;12308;50.948;4.706;2023-05-19T09:50:04;18.10;99.90
24146;DHT22;12308;50.948;4.706;2023-05-19T09:52:33;18.40;99.90
24146;DHT22;12308;50.948;4.706;2023-05-19T09:55:00;18.40;99.90
24146;DHT22;12308;50.948;4.706;2023-05-19T09:57:32;18.20;99.90
24146;DHT22;12308;50.948;4.706;2023-05-19T10:00:10;18.50;99.90
24146;DHT22;12308;50.948;4.706;2023-05-19T10:02:43;18.90;99.90
24146;DHT22;12308;50.948;4.706;2023-05-19T10:05:13;19.20;99.90
24146;DHT22;12308;50.948;4.706;2023-05-19T10:07:49;19.10;99.90
24146;DHT22;12308;50.948;4.706;2023-05-19T10:10:16;18.80;99.90
24146;DHT22;12308;50.948;4.706;2023-05-19T10:12:44;18.80;99.90
24146;DHT22;12308;50.948;4.706;2023-05-19T10:15:12;19.10;99.90
24146;DHT22;12308;50.948;4.706;2023-05-19T10:17:39;19.20;99.90
24146;DHT22;12308;50.948;4.706;2023-05-19T10:20:10;18.80;99.90
24146;DHT22;12308;50.948;4.706;2023-05-19T10:22:37;18.50;99.90
24146;DHT22;12308;50.948;4.706;2023-05-19T10:25:05;18.30;99.90
24146;DHT22;12308;50.948;4.706;2023-05-19T10:27:33;18.40;99.90
24146;DHT22;12308;50.948;4.706;2023-05-19T10:30:05;18.30;99.90
24146;DHT22;12308;50.948;4.706;2023-05-19T10:32:33;18.30;99.90
24146;DHT22;12308;50.948;4.706;2023-05-19T10:40:32;18.00;99.90
24146;DHT22;12308;50.948;4.706;2023-05-19T10:46:25;18.20;99.90
24146;DHT22;12308;50.948;4.706;2023-05-19T10:48:51;18.40;99.90
24146;DHT22;12308;50.948;4.706;2023-05-19T10:51:17;18.30;99.90
24146;DHT22;12308;50.948;4.706;2023-05-19T10:53:42;18.30;99.90
24146;DHT22;12308;50.948;4.706;2023-05-19T10:56:11;18.10;99.90
24146;DHT22;12308;50.948;4.706;2023-05-19T11:01:15;18.00;99.90
24146;DHT22;12308;50.948;4.706;2023-05-19T11:03:53;18.00;99.90
24146;DHT22;12308;50.948;4.706;2023-05-19T11:06:26;18.20;99.90
24146;DHT22;12308;50.948;4.706;2023-05-19T11:08:58;18.20;99.90
24146;DHT22;12308;50.948;4.706;2023-05-19T11:11:25;18.20;99.90
24146;DHT22;12308;50.948;4.706;2023-05-19T11:13:53;18.40;99.90
24146;DHT22;12308;50.948;4.706;2023-05-19T11:16:30;18.70;99.90
24146;DHT22;12308;50.948;4.706;2023-05-19T11:18:58;18.80;99.90
24146;DHT22;12308;50.948;4.706;2023-05-19T11:21:46;18.80;99.90
24146;DHT22;12308;50.948;4.706;2023-05-19T11:24:32;18.80;99.90
24146;DHT22;12308;50.948;4.706;2023-05-19T11:26:59;18.90;99.90
24146;DHT22;12308;50.948;4.706;2023-05-19T11:29:41;18.80;99.90
24146;DHT22;12308;50.948;4.706;2023-05-19T11:32:08;18.80;99.90
24146;DHT22;12308;50.948;4.706;2023-05-19T11:34:34;19.00;99.90
24146;DHT22;12308;50.948;4.706;2023-05-19T11:37:01;19.10;99.90
24146;DHT22;12308;50.948;4.706;2023-05-19T11:39:29;19.10;99.90
24146;DHT22;12308;50.948;4.706;2023-05-19T11:41:55;19.00;99.90
24146;DHT22;12308;50.948;4.706;2023-05-19T11:44:20;19.00;99.90
24146;DHT22;12308;50.948;4.706;2023-05-19T11:46:46;19.10;99.90
24146;DHT22;12308;50.948;4.706;2023-05-19T11:49:12;19.30;99.90
24146;DHT22;12308;50.948;4.706;2023-05-19T11:51:38;19.40;99.90
24146;DHT22;12308;50.948;4.706;2023-05-19T11:54:03;19.40;99.90
24146;DHT22;12308;50.948;4.706;2023-05-19T11:56:39;19.40;99.90
24146;DHT22;12308;50.948;4.706;2023-05-19T11:59:05;19.60;99.90
24146;DHT22;12308;50.948;4.706;2023-05-19T12:01:32;19.60;99.90
24146;DHT22;12308;50.948;4.706;2023-05-19T12:03:58;19.60;99.90
24146;DHT22;12308;50.948;4.706;2023-05-19T12:06:25;19.60;99.90
24146;DHT22;12308;50.948;4.706;2023-05-19T12:08:52;19.70;99.90
24146;DHT22;12308;50.948;4.706;2023-05-19T12:11:18;19.80;99.90
24146;DHT22;12308;50.948;4.706;2023-05-19T12:13:44;19.70;99.90
24146;DHT22;12308;50.948;4.706;2023-05-19T12:16:11;19.60;99.90
24146;DHT22;12308;50.948;4.706;2023-05-19T12:18:37;19.50;99.90
24146;DHT22;12308;50.948;4.706;2023-05-19T12:21:03;19.40;99.90
24146;DHT22;12308;50.948;4.706;2023-05-19T12:23:30;19.50;99.90
24146;DHT22;12308;50.948;4.706;2023-05-19T12:25:57;19.40;99.90
24146;DHT22;12308;50.948;4.706;2023-05-19T12:28:23;19.60;99.90
24146;DHT22;12308;50.948;4.706;2023-05-19T12:30:50;19.50;99.90
24146;DHT22;12308;50.948;4.706;2023-05-19T12:33:17;19.60;99.90
24146;DHT22;12308;50.948;4.706;2023-05-19T12:35:44;19.70;99.90
24146;DHT22;12308;50.948;4.706;2023-05-19T12:38:13;19.90;99.90
24146;DHT22;12308;50.948;4.706;2023-05-19T12:40:39;20.00;99.90
24146;DHT22;12308;50.948;4.706;2023-05-19T12:43:05;20.00;99.90
24146;DHT22;12308;50.948;4.706;2023-05-19T12:45:34;20.20;99.90
24146;DHT22;12308;50.948;4.706;2023-05-19T12:48:24;20.40;99.90
24146;DHT22;12308;50.948;4.706;2023-05-19T12:50:53;20.00;99.90
24146;DHT22;12308;50.948;4.706;2023-05-19T12:53:19;19.70;99.90
24146;DHT22;12308;50.948;4.706;2023-05-19T12:55:45;19.60;99.90
24146;DHT22;12308;50.948;4.706;2023-05-19T12:58:12;19.60;99.90
24146;DHT22;12308;50.948;4.706;2023-05-19T13:00:42;19.70;99.90
24146;DHT22;12308;50.948;4.706;2023-05-19T13:05:42;19.90;99.90
24146;DHT22;12308;50.948;4.706;2023-05-19T13:08:10;20.10;99.90
24146;DHT22;12308;50.948;4.706;2023-05-19T13:10:37;20.20;99.90
24146;DHT22;12308;50.948;4.706;2023-05-19T13:13:04;20.30;99.90
24146;DHT22;12308;50.948;4.706;2023-05-19T13:15:32;20.30;99.90
24146;DHT22;12308;50.948;4.706;2023-05-19T13:18:04;20.40;99.90
24146;DHT22;12308;50.948;4.706;2023-05-19T13:20:31;20.50;99.90
24146;DHT22;12308;50.948;4.706;2023-05-19T13:22:57;20.40;99.90
24146;DHT22;12308;50.948;4.706;2023-05-19T13:25:24;20.40;99.90
24146;DHT22;12308;50.948;4.706;2023-05-19T13:27:50;20.70;99.90
24146;DHT22;12308;50.948;4.706;2023-05-19T13:30:16;20.80;99.90
24146;DHT22;12308;50.948;4.706;2023-05-19T13:32:42;20.60;99.90
24146;DHT22;12308;50.948;4.706;2023-05-19T13:35:09;20.70;99.90
24146;DHT22;12308;50.948;4.706;2023-05-19T13:37:35;20.90;99.90
24146;DHT22;12308;50.948;4.706;2023-05-19T13:40:01;20.80;99.90
24146;DHT22;12308;50.948;4.706;2023-05-19T13:42:27;20.70;99.90
24146;DHT22;12308;50.948;4.706;2023-05-19T13:44:55;20.70;99.90
24146;DHT22;12308;50.948;4.706;2023-05-19T13:47:24;20.70;99.90
24146;DHT22;12308;50.948;4.706;2023-05-19T13:49:50;20.50;99.90
24146;DHT22;12308;50.948;4.706;2023-05-19T13:52:16;20.60;99.90
24146;DHT22;12308;50.948;4.706;2023-05-19T13:54:42;20.50;99.90
24146;DHT22;12308;50.948;4.706;2023-05-19T13:57:08;20.60;99.90
24146;DHT22;12308;50.948;4.706;2023-05-19T13:59:34;20.70;99.90
24146;DHT22;12308;50.948;4.706;2023-05-19T14:02:00;21.00;99.90
24146;DHT22;12308;50.948;4.706;2023-05-19T14:04:29;20.90;99.90
24146;DHT22;12308;50.948;4.706;2023-05-19T14:06:55;20.70;99.90
24146;DHT22;12308;50.948;4.706;2023-05-19T14:09:21;20.70;99.90
24146;DHT22;12308;50.948;4.706;2023-05-19T14:11:47;20.80;99.90
24146;DHT22;12308;50.948;4.706;2023-05-19T14:14:13;20.90;99.90
24146;DHT22;12308;50.948;4.706;2023-05-19T14:16:39;20.90;99.90
24146;DHT22;12308;50.948;4.706;2023-05-19T14:19:06;20.90;99.90
24146;DHT22;12308;50.948;4.706;2023-05-19T14:21:32;20.80;99.90
24146;DHT22;12308;50.948;4.706;2023-05-19T14:23:58;20.90;99.90
24146;DHT22;12308;50.948;4.706;2023-05-19T14:26:23;21.10;99.90
24146;DHT22;12308;50.948;4.706;2023-05-19T14:28:50;20.90;99.90
24146;DHT22;12308;50.948;4.706;2023-05-19T14:31:16;20.80;99.90
24146;DHT22;12308;50.948;4.706;2023-05-19T14:33:42;20.80;99.90
24146;DHT22;12308;50.948;4.706;2023-05-19T14:36:08;20.70;99.90
24146;DHT22;12308;50.948;4.706;2023-05-19T14:38:34;20.70;99.90
24146;DHT22;12308;50.948;4.706;2023-05-19T14:41:00;20.80;99.90
24146;DHT22;12308;50.948;4.706;2023-05-19T14:43:26;20.90;99.90
24146;DHT22;12308;50.948;4.706;2023-05-19T14:45:52;20.90;99.90
24146;DHT22;12308;50.948;4.706;2023-05-19T14:48:17;21.00;99.90
24146;DHT22;12308;50.948;4.706;2023-05-19T14:50:43;21.00;99.90
24146;DHT22;12308;50.948;4.706;2023-05-19T14:53:10;20.90;99.90
24146;DHT22;12308;50.948;4.706;2023-05-19T14:55:36;20.80;99.90
24146;DHT22;12308;50.948;4.706;2023-05-19T14:58:01;20.70;99.90
24146;DHT22;12308;50.948;4.706;2023-05-19T15:00:27;20.60;99.90
24146;DHT22;12308;50.948;4.706;2023-05-19T15:02:53;20.50;99.90
24146;DHT22;12308;50.948;4.706;2023-05-19T15:05:19;20.60;99.90
24146;DHT22;12308;50.948;4.706;2023-05-19T15:07:47;20.50;99.90
24146;DHT22;12308;50.948;4.706;2023-05-19T15:10:12;20.60;99.90
24146;DHT22;12308;50.948;4.706;2023-05-19T15:12:38;20.70;99.90
24146;DHT22;12308;50.948;4.706;2023-05-19T15:15:04;20.90;99.90
24146;DHT22;12308;50.948;4.706;2023-05-19T15:17:30;21.00;99.90
24146;DHT22;12308;50.948;4.706;2023-05-19T15:19:56;21.00;99.90
24146;DHT22;12308;50.948;4.706;2023-05-19T15:22:22;21.00;99.90
24146;DHT22;12308;50.948;4.706;2023-05-19T15:24:48;21.10;99.90
24146;DHT22;12308;50.948;4.706;2023-05-19T15:27:13;21.00;99.90
24146;DHT22;12308;50.948;4.706;2023-05-19T15:29:39;20.90;99.90
24146;DHT22;12308;50.948;4.706;2023-05-19T15:32:05;20.80;99.90
24146;DHT22;12308;50.948;4.706;2023-05-19T15:34:31;20.60;99.90
24146;DHT22;12308;50.948;4.706;2023-05-19T15:36:56;20.80;99.90
24146;DHT22;12308;50.948;4.706;2023-05-19T15:39:22;21.00;99.90
24146;DHT22;12308;50.948;4.706;2023-05-19T15:41:49;21.00;99.90
24146;DHT22;12308;50.948;4.706;2023-05-19T15:44:16;21.00;99.90
24146;DHT22;12308;50.948;4.706;2023-05-19T15:46:41;21.10;99.90
24146;DHT22;12308;50.948;4.706;2023-05-19T15:49:07;21.20;99.90
24146;DHT22;12308;50.948;4.706;2023-05-19T15:51:33;21.20;99.90
24146;DHT22;12308;50.948;4.706;2023-05-19T15:53:59;21.00;99.90
24146;DHT22;12308;50.948;4.706;2023-05-19T15:56:25;20.90;99.90
24146;DHT22;12308;50.948;4.706;2023-05-19T15:58:51;20.90;99.90
24146;DHT22;12308;50.948;4.706;2023-05-19T16:01:16;20.80;99.90
24146;DHT22;12308;50.948;4.706;2023-05-19T16:03:43;20.90;99.90
24146;DHT22;12308;50.948;4.706;2023-05-19T16:06:09;21.10;99.90
24146;DHT22;12308;50.948;4.706;2023-05-19T16:08:35;21.40;99.90